Archival Weather

Pocono Mountains Rgnl

Mount Pocono, Pennsylvania (KMPO)

Report from: Tuesday, May 21, 2024 8:53 AM EDT
Current time: Monday, July 22, 2024 6:45 AM EDT

Current weather – Weather history – Daily summaries
Weather forecast

Temperature20.0°C (68.0°F)
Dew point14.4°C (57.9°F)
Winds 8 kts (4.1 m/s, 9.2 mph) West (260°)
Visibility10 mi. (16.1 km)
Clouds Sky clear
Altimeter30.06 in.Hg (1018 mB)
Relative humidity70 %
Density altitude690 ft. (210 m)
Sea-level pressure101.7 kPa (1017 mB, 30.03 in.Hg)
Remarks Fully automated report
Automated weather observing station with precipitation discriminator
Flight conditions Visual Meteorological Conditions
Raw dataKMPO 211253Z AUTO 26008KT 10SM CLR 20/14 A3006 RMK AO2 SLP169 T02000144
An error has occurred. This application may no longer respond until reloaded. Reload 🗙